Terminal Aerodrome Forecast
Issued by NWS Caribou, ME

Home | Current Version | Previous Version | Text Only | Print | Product List | Glossary On
Versions: 1 2 3 4 5 6 7 8 9 10 11 12 13 14 15 16 17 18 19 20 21
205
FTUS41 KCAR 240520
TAFBGR
TAF
KBGR 240520Z 2406/2506 20008KT P6SM SCT250 WS020/23040KT
     FM240800 26006KT P6SM OVC090
     FM241000 32010KT P6SM SCT060
     FM242000 VRB03KT P6SM SCT200=

USA.gov is the U.S. government's official web portal to all federal, state and local government web resources and services.